sensor_id;sensor_type;location;lat;lon;timestamp;P1;durP1;ratioP1;P2;durP2;ratioP2
43901;SDS011;29562;40.390;-3.706;2023-12-14T00:01:07;1.80;;;0.32;;
43901;SDS011;29562;40.390;-3.706;2023-12-14T00:03:40;1.38;;;0.43;;
43901;SDS011;29562;40.390;-3.706;2023-12-14T00:06:12;0.83;;;0.23;;
43901;SDS011;29562;40.390;-3.706;2023-12-14T00:08:43;2.15;;;0.30;;
43901;SDS011;29562;40.390;-3.706;2023-12-14T00:11:14;1.13;;;0.45;;
43901;SDS011;29562;40.390;-3.706;2023-12-14T00:13:45;2.25;;;0.60;;
43901;SDS011;29562;40.390;-3.706;2023-12-14T00:16:16;2.15;;;0.30;;
43901;SDS011;29562;40.390;-3.706;2023-12-14T00:18:48;2.20;;;0.50;;
43901;SDS011;29562;40.390;-3.706;2023-12-14T00:21:19;1.10;;;0.40;;
43901;SDS011;29562;40.390;-3.706;2023-12-14T00:23:50;0.63;;;0.25;;
43901;SDS011;29562;40.390;-3.706;2023-12-14T00:26:21;1.02;;;0.30;;
43901;SDS011;29562;40.390;-3.706;2023-12-14T00:28:52;1.40;;;0.20;;
43901;SDS011;29562;40.390;-3.706;2023-12-14T00:31:23;0.98;;;0.60;;
43901;SDS011;29562;40.390;-3.706;2023-12-14T00:33:55;0.75;;;0.20;;
43901;SDS011;29562;40.390;-3.706;2023-12-14T00:36:26;1.30;;;0.20;;
43901;SDS011;29562;40.390;-3.706;2023-12-14T00:38:58;1.73;;;0.35;;
43901;SDS011;29562;40.390;-3.706;2023-12-14T00:41:30;0.82;;;0.20;;
43901;SDS011;29562;40.390;-3.706;2023-12-14T00:44:01;1.65;;;0.28;;
43901;SDS011;29562;40.390;-3.706;2023-12-14T00:46:32;1.33;;;0.50;;
43901;SDS011;29562;40.390;-3.706;2023-12-14T00:49:03;2.30;;;0.38;;
43901;SDS011;29562;40.390;-3.706;2023-12-14T00:51:34;1.92;;;0.57;;
43901;SDS011;29562;40.390;-3.706;2023-12-14T00:54:05;2.70;;;0.50;;
43901;SDS011;29562;40.390;-3.706;2023-12-14T00:56:36;2.15;;;0.40;;
43901;SDS011;29562;40.390;-3.706;2023-12-14T00:59:08;0.88;;;0.40;;
43901;SDS011;29562;40.390;-3.706;2023-12-14T01:01:39;1.30;;;0.40;;
43901;SDS011;29562;40.390;-3.706;2023-12-14T01:04:10;1.02;;;0.45;;
43901;SDS011;29562;40.390;-3.706;2023-12-14T01:06:41;0.98;;;0.38;;
43901;SDS011;29562;40.390;-3.706;2023-12-14T01:09:12;0.73;;;0.43;;
43901;SDS011;29562;40.390;-3.706;2023-12-14T01:11:43;0.73;;;0.30;;
43901;SDS011;29562;40.390;-3.706;2023-12-14T01:14:14;2.30;;;0.60;;
43901;SDS011;29562;40.390;-3.706;2023-12-14T01:16:46;1.60;;;0.40;;
43901;SDS011;29562;40.390;-3.706;2023-12-14T01:19:17;1.50;;;0.40;;
43901;SDS011;29562;40.390;-3.706;2023-12-14T01:21:48;2.75;;;0.45;;
43901;SDS011;29562;40.390;-3.706;2023-12-14T01:24:19;3.25;;;0.40;;
43901;SDS011;29562;40.390;-3.706;2023-12-14T01:26:50;1.27;;;0.40;;
43901;SDS011;29562;40.390;-3.706;2023-12-14T01:29:21;0.73;;;0.30;;
43901;SDS011;29562;40.390;-3.706;2023-12-14T01:31:52;2.55;;;0.40;;
43901;SDS011;29562;40.390;-3.706;2023-12-14T01:34:23;1.20;;;0.30;;
43901;SDS011;29562;40.390;-3.706;2023-12-14T01:36:54;0.98;;;0.43;;
43901;SDS011;29562;40.390;-3.706;2023-12-14T01:39:26;4.03;;;0.50;;
43901;SDS011;29562;40.390;-3.706;2023-12-14T01:41:57;1.40;;;0.50;;
43901;SDS011;29562;40.390;-3.706;2023-12-14T01:44:28;2.20;;;0.43;;
43901;SDS011;29562;40.390;-3.706;2023-12-14T01:46:59;1.63;;;0.95;;
43901;SDS011;29562;40.390;-3.706;2023-12-14T01:49:30;1.40;;;0.30;;
43901;SDS011;29562;40.390;-3.706;2023-12-14T01:52:01;0.77;;;0.40;;
43901;SDS011;29562;40.390;-3.706;2023-12-14T01:54:33;0.50;;;0.20;;
43901;SDS011;29562;40.390;-3.706;2023-12-14T01:57:04;0.40;;;0.25;;
43901;SDS011;29562;40.390;-3.706;2023-12-14T01:59:35;1.27;;;0.30;;
43901;SDS011;29562;40.390;-3.706;2023-12-14T02:02:07;1.35;;;0.22;;
43901;SDS011;29562;40.390;-3.706;2023-12-14T02:04:39;3.42;;;0.88;;
43901;SDS011;29562;40.390;-3.706;2023-12-14T02:07:10;2.83;;;0.80;;
43901;SDS011;29562;40.390;-3.706;2023-12-14T02:09:41;0.63;;;0.30;;
43901;SDS011;29562;40.390;-3.706;2023-12-14T02:12:12;2.47;;;0.63;;
43901;SDS011;29562;40.390;-3.706;2023-12-14T02:14:43;1.00;;;0.20;;
43901;SDS011;29562;40.390;-3.706;2023-12-14T02:17:14;0.73;;;0.32;;
43901;SDS011;29562;40.390;-3.706;2023-12-14T02:19:45;3.58;;;0.40;;
43901;SDS011;29562;40.390;-3.706;2023-12-14T02:22:17;1.10;;;0.30;;
43901;SDS011;29562;40.390;-3.706;2023-12-14T02:24:49;0.50;;;0.20;;
43901;SDS011;29562;40.390;-3.706;2023-12-14T02:27:20;2.05;;;0.90;;
43901;SDS011;29562;40.390;-3.706;2023-12-14T02:29:51;1.92;;;0.35;;
43901;SDS011;29562;40.390;-3.706;2023-12-14T02:32:22;1.35;;;0.38;;
43901;SDS011;29562;40.390;-3.706;2023-12-14T02:34:54;0.80;;;0.40;;
43901;SDS011;29562;40.390;-3.706;2023-12-14T02:37:25;0.77;;;0.40;;
43901;SDS011;29562;40.390;-3.706;2023-12-14T02:39:56;3.92;;;0.30;;
43901;SDS011;29562;40.390;-3.706;2023-12-14T02:42:27;2.05;;;0.30;;
43901;SDS011;29562;40.390;-3.706;2023-12-14T02:44:58;1.05;;;0.20;;
43901;SDS011;29562;40.390;-3.706;2023-12-14T02:47:30;2.17;;;0.38;;
43901;SDS011;29562;40.390;-3.706;2023-12-14T02:50:01;1.63;;;0.35;;
43901;SDS011;29562;40.390;-3.706;2023-12-14T02:52:33;2.55;;;0.47;;
43901;SDS011;29562;40.390;-3.706;2023-12-14T02:55:04;0.82;;;0.30;;
43901;SDS011;29562;40.390;-3.706;2023-12-14T02:57:36;1.42;;;0.40;;
43901;SDS011;29562;40.390;-3.706;2023-12-14T03:00:07;0.80;;;0.30;;
43901;SDS011;29562;40.390;-3.706;2023-12-14T03:02:38;2.80;;;0.52;;
43901;SDS011;29562;40.390;-3.706;2023-12-14T03:05:10;1.42;;;0.50;;
43901;SDS011;29562;40.390;-3.706;2023-12-14T03:07:41;1.65;;;0.40;;
43901;SDS011;29562;40.390;-3.706;2023-12-14T03:10:12;1.20;;;0.30;;
43901;SDS011;29562;40.390;-3.706;2023-12-14T03:12:43;2.85;;;0.85;;
43901;SDS011;29562;40.390;-3.706;2023-12-14T03:15:16;1.38;;;0.32;;
43901;SDS011;29562;40.390;-3.706;2023-12-14T03:17:49;0.90;;;0.30;;
43901;SDS011;29562;40.390;-3.706;2023-12-14T03:20:20;1.17;;;0.43;;
43901;SDS011;29562;40.390;-3.706;2023-12-14T03:22:51;1.02;;;0.40;;
43901;SDS011;29562;40.390;-3.706;2023-12-14T03:25:22;1.67;;;0.40;;
43901;SDS011;29562;40.390;-3.706;2023-12-14T03:27:53;1.63;;;0.45;;
43901;SDS011;29562;40.390;-3.706;2023-12-14T03:30:25;1.15;;;0.40;;
43901;SDS011;29562;40.390;-3.706;2023-12-14T03:32:57;2.08;;;0.40;;
43901;SDS011;29562;40.390;-3.706;2023-12-14T03:35:28;1.27;;;0.60;;
43901;SDS011;29562;40.390;-3.706;2023-12-14T03:37:59;1.40;;;0.35;;
43901;SDS011;29562;40.390;-3.706;2023-12-14T03:40:31;2.75;;;0.50;;
43901;SDS011;29562;40.390;-3.706;2023-12-14T03:43:02;0.85;;;0.40;;
43901;SDS011;29562;40.390;-3.706;2023-12-14T03:45:34;1.95;;;0.65;;
43901;SDS011;29562;40.390;-3.706;2023-12-14T03:48:05;1.00;;;0.50;;
43901;SDS011;29562;40.390;-3.706;2023-12-14T03:50:36;1.73;;;0.63;;
43901;SDS011;29562;40.390;-3.706;2023-12-14T03:53:07;2.30;;;0.70;;
43901;SDS011;29562;40.390;-3.706;2023-12-14T03:55:39;4.60;;;0.90;;
43901;SDS011;29562;40.390;-3.706;2023-12-14T03:58:10;1.90;;;0.82;;
43901;SDS011;29562;40.390;-3.706;2023-12-14T04:00:41;1.50;;;0.70;;
43901;SDS011;29562;40.390;-3.706;2023-12-14T04:03:12;3.83;;;0.80;;
43901;SDS011;29562;40.390;-3.706;2023-12-14T04:05:43;1.70;;;0.70;;
43901;SDS011;29562;40.390;-3.706;2023-12-14T04:08:15;1.73;;;0.85;;
43901;SDS011;29562;40.390;-3.706;2023-12-14T04:10:46;1.08;;;0.60;;
43901;SDS011;29562;40.390;-3.706;2023-12-14T04:13:17;1.92;;;0.70;;
43901;SDS011;29562;40.390;-3.706;2023-12-14T04:15:48;1.88;;;0.50;;
43901;SDS011;29562;40.390;-3.706;2023-12-14T04:18:19;1.67;;;0.60;;
43901;SDS011;29562;40.390;-3.706;2023-12-14T04:20:50;2.03;;;0.80;;
43901;SDS011;29562;40.390;-3.706;2023-12-14T04:23:22;3.45;;;0.93;;
43901;SDS011;29562;40.390;-3.706;2023-12-14T04:25:53;1.98;;;0.60;;
43901;SDS011;29562;40.390;-3.706;2023-12-14T04:28:24;2.72;;;0.75;;
43901;SDS011;29562;40.390;-3.706;2023-12-14T04:30:55;5.00;;;1.10;;
43901;SDS011;29562;40.390;-3.706;2023-12-14T04:33:26;4.22;;;0.80;;
43901;SDS011;29562;40.390;-3.706;2023-12-14T04:35:57;1.80;;;1.20;;
43901;SDS011;29562;40.390;-3.706;2023-12-14T04:38:29;2.78;;;0.70;;
43901;SDS011;29562;40.390;-3.706;2023-12-14T04:41:00;2.78;;;0.85;;
43901;SDS011;29562;40.390;-3.706;2023-12-14T04:43:31;1.83;;;1.00;;
43901;SDS011;29562;40.390;-3.706;2023-12-14T04:46:02;1.92;;;0.82;;
43901;SDS011;29562;40.390;-3.706;2023-12-14T04:48:33;2.57;;;0.50;;
43901;SDS011;29562;40.390;-3.706;2023-12-14T04:51:05;4.00;;;0.88;;
43901;SDS011;29562;40.390;-3.706;2023-12-14T04:53:36;2.53;;;0.90;;
43901;SDS011;29562;40.390;-3.706;2023-12-14T04:56:11;3.05;;;1.05;;
43901;SDS011;29562;40.390;-3.706;2023-12-14T04:58:42;3.25;;;0.60;;
43901;SDS011;29562;40.390;-3.706;2023-12-14T05:01:13;7.00;;;1.45;;
43901;SDS011;29562;40.390;-3.706;2023-12-14T05:03:44;1.70;;;0.90;;
43901;SDS011;29562;40.390;-3.706;2023-12-14T05:06:15;1.08;;;0.82;;
43901;SDS011;29562;40.390;-3.706;2023-12-14T05:08:46;3.22;;;0.82;;
43901;SDS011;29562;40.390;-3.706;2023-12-14T05:11:18;3.80;;;1.10;;
43901;SDS011;29562;40.390;-3.706;2023-12-14T05:13:49;4.07;;;0.90;;
43901;SDS011;29562;40.390;-3.706;2023-12-14T05:16:20;3.70;;;1.00;;
43901;SDS011;29562;40.390;-3.706;2023-12-14T05:18:51;2.90;;;0.90;;
43901;SDS011;29562;40.390;-3.706;2023-12-14T05:21:22;4.13;;;1.00;;
43901;SDS011;29562;40.390;-3.706;2023-12-14T05:23:53;3.17;;;1.35;;
43901;SDS011;29562;40.390;-3.706;2023-12-14T05:26:25;2.42;;;0.88;;
43901;SDS011;29562;40.390;-3.706;2023-12-14T05:28:56;2.38;;;0.80;;
43901;SDS011;29562;40.390;-3.706;2023-12-14T05:31:27;1.85;;;0.63;;
43901;SDS011;29562;40.390;-3.706;2023-12-14T05:33:58;4.00;;;0.55;;
43901;SDS011;29562;40.390;-3.706;2023-12-14T05:36:29;1.75;;;0.52;;
43901;SDS011;29562;40.390;-3.706;2023-12-14T05:39:00;3.03;;;0.75;;
43901;SDS011;29562;40.390;-3.706;2023-12-14T05:41:33;1.25;;;0.68;;
43901;SDS011;29562;40.390;-3.706;2023-12-14T05:44:10;2.85;;;0.95;;
43901;SDS011;29562;40.390;-3.706;2023-12-14T05:46:41;1.38;;;0.50;;
43901;SDS011;29562;40.390;-3.706;2023-12-14T05:49:12;4.57;;;0.85;;
43901;SDS011;29562;40.390;-3.706;2023-12-14T05:51:44;3.00;;;0.57;;
43901;SDS011;29562;40.390;-3.706;2023-12-14T05:54:15;1.02;;;0.40;;
43901;SDS011;29562;40.390;-3.706;2023-12-14T05:56:46;0.73;;;0.32;;
43901;SDS011;29562;40.390;-3.706;2023-12-14T05:59:17;1.95;;;1.10;;
43901;SDS011;29562;40.390;-3.706;2023-12-14T06:01:48;3.20;;;0.70;;
43901;SDS011;29562;40.390;-3.706;2023-12-14T06:04:19;1.80;;;0.60;;
43901;SDS011;29562;40.390;-3.706;2023-12-14T06:06:50;2.13;;;0.80;;
43901;SDS011;29562;40.390;-3.706;2023-12-14T06:09:21;3.15;;;0.85;;
43901;SDS011;29562;40.390;-3.706;2023-12-14T06:11:56;3.75;;;0.88;;
43901;SDS011;29562;40.390;-3.706;2023-12-14T06:14:27;2.03;;;0.70;;
43901;SDS011;29562;40.390;-3.706;2023-12-14T06:16:58;1.80;;;0.80;;
43901;SDS011;29562;40.390;-3.706;2023-12-14T06:19:29;2.03;;;0.57;;
43901;SDS011;29562;40.390;-3.706;2023-12-14T06:22:01;1.55;;;0.60;;
43901;SDS011;29562;40.390;-3.706;2023-12-14T06:24:32;2.63;;;0.60;;
43901;SDS011;29562;40.390;-3.706;2023-12-14T06:27:03;3.33;;;0.90;;
43901;SDS011;29562;40.390;-3.706;2023-12-14T06:29:34;1.73;;;0.70;;
43901;SDS011;29562;40.390;-3.706;2023-12-14T06:32:05;3.17;;;0.77;;
43901;SDS011;29562;40.390;-3.706;2023-12-14T06:34:37;2.97;;;0.95;;
43901;SDS011;29562;40.390;-3.706;2023-12-14T06:37:08;3.65;;;1.00;;
43901;SDS011;29562;40.390;-3.706;2023-12-14T06:39:42;3.00;;;1.00;;
43901;SDS011;29562;40.390;-3.706;2023-12-14T06:42:13;7.22;;;1.20;;
43901;SDS011;29562;40.390;-3.706;2023-12-14T06:44:44;2.70;;;1.17;;
43901;SDS011;29562;40.390;-3.706;2023-12-14T06:47:16;5.88;;;1.92;;
43901;SDS011;29562;40.390;-3.706;2023-12-14T06:49:47;2.65;;;1.05;;
43901;SDS011;29562;40.390;-3.706;2023-12-14T06:52:18;5.35;;;1.60;;
43901;SDS011;29562;40.390;-3.706;2023-12-14T06:54:49;3.95;;;1.38;;
43901;SDS011;29562;40.390;-3.706;2023-12-14T06:57:20;3.20;;;1.83;;
43901;SDS011;29562;40.390;-3.706;2023-12-14T06:59:51;2.85;;;1.42;;
43901;SDS011;29562;40.390;-3.706;2023-12-14T07:02:23;4.80;;;1.40;;
43901;SDS011;29562;40.390;-3.706;2023-12-14T07:04:54;2.58;;;1.02;;
43901;SDS011;29562;40.390;-3.706;2023-12-14T07:07:25;3.35;;;1.30;;
43901;SDS011;29562;40.390;-3.706;2023-12-14T07:09:56;5.93;;;2.30;;
43901;SDS011;29562;40.390;-3.706;2023-12-14T07:12:27;5.50;;;1.50;;
43901;SDS011;29562;40.390;-3.706;2023-12-14T07:14:58;5.50;;;1.73;;
43901;SDS011;29562;40.390;-3.706;2023-12-14T07:17:29;3.67;;;1.40;;
43901;SDS011;29562;40.390;-3.706;2023-12-14T07:20:01;6.25;;;1.73;;
43901;SDS011;29562;40.390;-3.706;2023-12-14T07:22:32;4.50;;;1.65;;
43901;SDS011;29562;40.390;-3.706;2023-12-14T07:25:03;3.10;;;1.55;;
43901;SDS011;29562;40.390;-3.706;2023-12-14T07:27:35;4.90;;;1.95;;
43901;SDS011;29562;40.390;-3.706;2023-12-14T07:30:06;3.78;;;1.90;;
43901;SDS011;29562;40.390;-3.706;2023-12-14T07:32:39;3.80;;;1.75;;
43901;SDS011;29562;40.390;-3.706;2023-12-14T07:35:10;5.50;;;1.80;;
43901;SDS011;29562;40.390;-3.706;2023-12-14T07:37:41;5.82;;;1.63;;
43901;SDS011;29562;40.390;-3.706;2023-12-14T07:40:12;5.00;;;1.85;;
43901;SDS011;29562;40.390;-3.706;2023-12-14T07:42:43;5.60;;;1.70;;
43901;SDS011;29562;40.390;-3.706;2023-12-14T07:45:15;4.78;;;2.13;;
43901;SDS011;29562;40.390;-3.706;2023-12-14T07:47:46;4.55;;;2.15;;
43901;SDS011;29562;40.390;-3.706;2023-12-14T07:50:17;10.63;;;1.90;;
43901;SDS011;29562;40.390;-3.706;2023-12-14T07:52:49;6.30;;;2.05;;
43901;SDS011;29562;40.390;-3.706;2023-12-14T07:55:20;4.50;;;1.58;;
43901;SDS011;29562;40.390;-3.706;2023-12-14T07:57:51;6.38;;;1.65;;
43901;SDS011;29562;40.390;-3.706;2023-12-14T08:00:23;4.70;;;1.80;;
43901;SDS011;29562;40.390;-3.706;2023-12-14T08:02:54;6.78;;;1.80;;
43901;SDS011;29562;40.390;-3.706;2023-12-14T08:05:25;4.35;;;1.85;;
43901;SDS011;29562;40.390;-3.706;2023-12-14T08:07:56;9.82;;;2.03;;
43901;SDS011;29562;40.390;-3.706;2023-12-14T08:10:27;6.35;;;2.67;;
43901;SDS011;29562;40.390;-3.706;2023-12-14T08:12:58;5.10;;;2.00;;
43901;SDS011;29562;40.390;-3.706;2023-12-14T08:15:29;5.28;;;1.67;;
43901;SDS011;29562;40.390;-3.706;2023-12-14T08:18:01;5.97;;;2.13;;
43901;SDS011;29562;40.390;-3.706;2023-12-14T08:20:32;5.00;;;1.98;;
43901;SDS011;29562;40.390;-3.706;2023-12-14T08:23:03;4.65;;;1.80;;
43901;SDS011;29562;40.390;-3.706;2023-12-14T08:25:34;5.40;;;2.00;;
43901;SDS011;29562;40.390;-3.706;2023-12-14T08:28:05;7.35;;;1.98;;
43901;SDS011;29562;40.390;-3.706;2023-12-14T08:30:36;8.07;;;2.75;;
43901;SDS011;29562;40.390;-3.706;2023-12-14T08:33:09;17.02;;;4.18;;
43901;SDS011;29562;40.390;-3.706;2023-12-14T08:35:40;10.27;;;2.90;;
43901;SDS011;29562;40.390;-3.706;2023-12-14T08:38:11;8.90;;;3.17;;
43901;SDS011;29562;40.390;-3.706;2023-12-14T08:40:42;10.30;;;3.58;;
43901;SDS011;29562;40.390;-3.706;2023-12-14T08:43:13;8.55;;;3.35;;
43901;SDS011;29562;40.390;-3.706;2023-12-14T08:45:44;8.70;;;3.25;;
43901;SDS011;29562;40.390;-3.706;2023-12-14T08:48:15;11.88;;;3.63;;
43901;SDS011;29562;40.390;-3.706;2023-12-14T08:50:47;9.55;;;3.05;;
43901;SDS011;29562;40.390;-3.706;2023-12-14T08:53:18;6.43;;;3.15;;
43901;SDS011;29562;40.390;-3.706;2023-12-14T08:55:49;13.05;;;3.58;;
43901;SDS011;29562;40.390;-3.706;2023-12-14T08:58:20;11.80;;;3.33;;
43901;SDS011;29562;40.390;-3.706;2023-12-14T09:00:51;6.10;;;3.22;;
43901;SDS011;29562;40.390;-3.706;2023-12-14T09:03:23;13.13;;;3.53;;
43901;SDS011;29562;40.390;-3.706;2023-12-14T09:05:54;15.70;;;3.83;;
43901;SDS011;29562;40.390;-3.706;2023-12-14T09:08:25;12.32;;;4.00;;
43901;SDS011;29562;40.390;-3.706;2023-12-14T09:10:56;15.00;;;4.30;;
43901;SDS011;29562;40.390;-3.706;2023-12-14T09:13:27;11.57;;;3.28;;
43901;SDS011;29562;40.390;-3.706;2023-12-14T09:15:58;16.65;;;4.78;;
43901;SDS011;29562;40.390;-3.706;2023-12-14T09:18:29;12.07;;;3.58;;
43901;SDS011;29562;40.390;-3.706;2023-12-14T09:21:01;14.13;;;4.30;;
43901;SDS011;29562;40.390;-3.706;2023-12-14T09:23:32;10.18;;;3.70;;
43901;SDS011;29562;40.390;-3.706;2023-12-14T09:26:03;14.02;;;3.83;;
43901;SDS011;29562;40.390;-3.706;2023-12-14T09:28:34;8.07;;;3.42;;
43901;SDS011;29562;40.390;-3.706;2023-12-14T09:31:05;8.48;;;3.40;;
43901;SDS011;29562;40.390;-3.706;2023-12-14T09:33:36;9.73;;;3.50;;
43901;SDS011;29562;40.390;-3.706;2023-12-14T09:36:07;11.40;;;3.95;;
43901;SDS011;29562;40.390;-3.706;2023-12-14T09:38:39;9.05;;;3.13;;
43901;SDS011;29562;40.390;-3.706;2023-12-14T09:41:10;9.32;;;2.95;;
43901;SDS011;29562;40.390;-3.706;2023-12-14T09:43:41;6.97;;;2.58;;
43901;SDS011;29562;40.390;-3.706;2023-12-14T09:46:13;6.97;;;2.50;;
43901;SDS011;29562;40.390;-3.706;2023-12-14T09:48:46;4.88;;;1.92;;
43901;SDS011;29562;40.390;-3.706;2023-12-14T09:51:17;9.60;;;2.58;;
43901;SDS011;29562;40.390;-3.706;2023-12-14T09:53:49;6.55;;;2.10;;
43901;SDS011;29562;40.390;-3.706;2023-12-14T09:56:26;10.25;;;3.30;;
43901;SDS011;29562;40.390;-3.706;2023-12-14T09:58:57;7.90;;;2.83;;
43901;SDS011;29562;40.390;-3.706;2023-12-14T10:01:31;7.40;;;2.22;;
43901;SDS011;29562;40.390;-3.706;2023-12-14T10:04:10;6.07;;;2.53;;
43901;SDS011;29562;40.390;-3.706;2023-12-14T10:06:42;10.57;;;2.33;;
43901;SDS011;29562;40.390;-3.706;2023-12-14T10:11:46;8.52;;;2.10;;
43901;SDS011;29562;40.390;-3.706;2023-12-14T10:14:19;9.20;;;2.50;;
43901;SDS011;29562;40.390;-3.706;2023-12-14T10:16:51;9.52;;;2.28;;
43901;SDS011;29562;40.390;-3.706;2023-12-14T10:19:22;7.88;;;2.38;;
43901;SDS011;29562;40.390;-3.706;2023-12-14T10:21:53;7.85;;;2.33;;
43901;SDS011;29562;40.390;-3.706;2023-12-14T10:24:24;6.13;;;2.05;;
43901;SDS011;29562;40.390;-3.706;2023-12-14T10:26:56;3.72;;;1.60;;
43901;SDS011;29562;40.390;-3.706;2023-12-14T10:29:27;4.78;;;2.20;;
43901;SDS011;29562;40.390;-3.706;2023-12-14T10:31:58;6.22;;;2.85;;
43901;SDS011;29562;40.390;-3.706;2023-12-14T10:34:29;8.18;;;2.42;;
43901;SDS011;29562;40.390;-3.706;2023-12-14T10:37:01;8.10;;;2.70;;
43901;SDS011;29562;40.390;-3.706;2023-12-14T10:39:34;7.63;;;2.25;;
43901;SDS011;29562;40.390;-3.706;2023-12-14T10:42:05;5.88;;;2.30;;
43901;SDS011;29562;40.390;-3.706;2023-12-14T10:44:39;7.60;;;2.10;;
43901;SDS011;29562;40.390;-3.706;2023-12-14T10:47:10;10.10;;;2.20;;
43901;SDS011;29562;40.390;-3.706;2023-12-14T10:49:41;4.85;;;1.50;;
43901;SDS011;29562;40.390;-3.706;2023-12-14T10:52:14;7.72;;;2.00;;
43901;SDS011;29562;40.390;-3.706;2023-12-14T10:54:45;8.93;;;2.23;;
43901;SDS011;29562;40.390;-3.706;2023-12-14T10:57:17;8.90;;;2.08;;
43901;SDS011;29562;40.390;-3.706;2023-12-14T10:59:49;9.93;;;2.65;;
43901;SDS011;29562;40.390;-3.706;2023-12-14T11:02:20;9.38;;;2.72;;
43901;SDS011;29562;40.390;-3.706;2023-12-14T11:04:59;14.35;;;3.15;;
43901;SDS011;29562;40.390;-3.706;2023-12-14T11:07:48;5.97;;;2.28;;
43901;SDS011;29562;40.390;-3.706;2023-12-14T11:10:21;7.28;;;2.65;;
43901;SDS011;29562;40.390;-3.706;2023-12-14T11:12:57;6.85;;;2.45;;
43901;SDS011;29562;40.390;-3.706;2023-12-14T11:15:30;3.88;;;2.35;;
43901;SDS011;29562;40.390;-3.706;2023-12-14T11:23:16;7.63;;;2.17;;
43901;SDS011;29562;40.390;-3.706;2023-12-14T11:28:19;5.00;;;2.17;;
43901;SDS011;29562;40.390;-3.706;2023-12-14T11:30:50;6.10;;;1.88;;
43901;SDS011;29562;40.390;-3.706;2023-12-14T11:33:21;3.83;;;1.88;;
43901;SDS011;29562;40.390;-3.706;2023-12-14T11:35:53;7.00;;;2.05;;
43901;SDS011;29562;40.390;-3.706;2023-12-14T11:38:24;4.57;;;1.98;;
43901;SDS011;29562;40.390;-3.706;2023-12-14T11:40:55;5.23;;;1.40;;
43901;SDS011;29562;40.390;-3.706;2023-12-14T11:43:26;4.93;;;1.30;;
43901;SDS011;29562;40.390;-3.706;2023-12-14T11:45:58;4.57;;;1.50;;
43901;SDS011;29562;40.390;-3.706;2023-12-14T11:48:29;3.03;;;1.23;;
43901;SDS011;29562;40.390;-3.706;2023-12-14T11:51:01;5.40;;;2.17;;
43901;SDS011;29562;40.390;-3.706;2023-12-14T11:53:32;8.38;;;1.23;;
43901;SDS011;29562;40.390;-3.706;2023-12-14T11:56:04;4.30;;;1.60;;
43901;SDS011;29562;40.390;-3.706;2023-12-14T11:58:35;5.57;;;1.58;;
43901;SDS011;29562;40.390;-3.706;2023-12-14T12:01:17;5.35;;;1.20;;
43901;SDS011;29562;40.390;-3.706;2023-12-14T12:03:55;2.42;;;1.27;;
43901;SDS011;29562;40.390;-3.706;2023-12-14T12:06:27;2.88;;;1.20;;
43901;SDS011;29562;40.390;-3.706;2023-12-14T12:08:58;6.38;;;1.00;;
43901;SDS011;29562;40.390;-3.706;2023-12-14T12:11:29;2.70;;;1.10;;
43901;SDS011;29562;40.390;-3.706;2023-12-14T12:14:01;3.05;;;1.10;;
43901;SDS011;29562;40.390;-3.706;2023-12-14T12:16:32;3.13;;;1.08;;
43901;SDS011;29562;40.390;-3.706;2023-12-14T12:21:35;6.07;;;0.93;;
43901;SDS011;29562;40.390;-3.706;2023-12-14T12:24:07;5.10;;;1.20;;
43901;SDS011;29562;40.390;-3.706;2023-12-14T12:26:38;4.30;;;1.10;;
43901;SDS011;29562;40.390;-3.706;2023-12-14T12:29:09;2.28;;;0.88;;
43901;SDS011;29562;40.390;-3.706;2023-12-14T12:31:40;2.47;;;0.93;;
43901;SDS011;29562;40.390;-3.706;2023-12-14T12:34:12;2.88;;;1.00;;
43901;SDS011;29562;40.390;-3.706;2023-12-14T12:36:43;1.98;;;0.88;;
43901;SDS011;29562;40.390;-3.706;2023-12-14T12:39:15;2.33;;;0.80;;
43901;SDS011;29562;40.390;-3.706;2023-12-14T12:41:47;2.65;;;1.00;;
43901;SDS011;29562;40.390;-3.706;2023-12-14T12:44:18;3.63;;;0.73;;
43901;SDS011;29562;40.390;-3.706;2023-12-14T12:46:49;4.28;;;0.95;;
43901;SDS011;29562;40.390;-3.706;2023-12-14T12:49:20;2.17;;;0.80;;
43901;SDS011;29562;40.390;-3.706;2023-12-14T12:51:51;1.35;;;0.70;;
43901;SDS011;29562;40.390;-3.706;2023-12-14T12:54:22;1.97;;;0.80;;
43901;SDS011;29562;40.390;-3.706;2023-12-14T12:56:53;3.25;;;1.10;;
43901;SDS011;29562;40.390;-3.706;2023-12-14T12:59:24;7.85;;;1.00;;
43901;SDS011;29562;40.390;-3.706;2023-12-14T13:01:56;5.00;;;1.02;;
43901;SDS011;29562;40.390;-3.706;2023-12-14T13:04:27;1.85;;;0.77;;
43901;SDS011;29562;40.390;-3.706;2023-12-14T13:07:00;3.58;;;1.00;;
43901;SDS011;29562;40.390;-3.706;2023-12-14T13:09:34;3.33;;;1.77;;
43901;SDS011;29562;40.390;-3.706;2023-12-14T13:12:05;2.38;;;1.05;;
43901;SDS011;29562;40.390;-3.706;2023-12-14T13:14:37;2.73;;;1.27;;
43901;SDS011;29562;40.390;-3.706;2023-12-14T13:17:08;2.08;;;1.25;;
43901;SDS011;29562;40.390;-3.706;2023-12-14T13:19:39;1.92;;;1.20;;
43901;SDS011;29562;40.390;-3.706;2023-12-14T13:22:10;5.28;;;1.25;;
43901;SDS011;29562;40.390;-3.706;2023-12-14T13:24:41;6.18;;;1.38;;
43901;SDS011;29562;40.390;-3.706;2023-12-14T13:27:12;2.80;;;1.20;;
43901;SDS011;29562;40.390;-3.706;2023-12-14T13:29:43;4.40;;;1.20;;
43901;SDS011;29562;40.390;-3.706;2023-12-14T13:32:15;2.80;;;1.17;;
43901;SDS011;29562;40.390;-3.706;2023-12-14T13:34:47;3.50;;;1.40;;
43901;SDS011;29562;40.390;-3.706;2023-12-14T13:39:50;2.63;;;0.80;;
43901;SDS011;29562;40.390;-3.706;2023-12-14T13:42:22;3.70;;;1.20;;
43901;SDS011;29562;40.390;-3.706;2023-12-14T13:44:53;3.25;;;0.80;;
43901;SDS011;29562;40.390;-3.706;2023-12-14T13:47:25;4.32;;;1.10;;
43901;SDS011;29562;40.390;-3.706;2023-12-14T13:49:56;4.82;;;1.73;;
43901;SDS011;29562;40.390;-3.706;2023-12-14T13:52:27;2.00;;;0.97;;
43901;SDS011;29562;40.390;-3.706;2023-12-14T13:54:58;5.63;;;1.27;;
43901;SDS011;29562;40.390;-3.706;2023-12-14T13:57:29;6.75;;;1.42;;
43901;SDS011;29562;40.390;-3.706;2023-12-14T14:00:00;3.38;;;1.10;;
43901;SDS011;29562;40.390;-3.706;2023-12-14T14:02:31;3.40;;;1.58;;
43901;SDS011;29562;40.390;-3.706;2023-12-14T14:05:03;3.60;;;1.38;;
43901;SDS011;29562;40.390;-3.706;2023-12-14T14:07:34;5.50;;;1.38;;
43901;SDS011;29562;40.390;-3.706;2023-12-14T14:10:06;3.78;;;1.55;;
43901;SDS011;29562;40.390;-3.706;2023-12-14T14:12:37;3.38;;;1.15;;
43901;SDS011;29562;40.390;-3.706;2023-12-14T14:15:09;5.28;;;1.80;;
43901;SDS011;29562;40.390;-3.706;2023-12-14T14:17:40;2.85;;;1.10;;
43901;SDS011;29562;40.390;-3.706;2023-12-14T14:20:14;7.47;;;1.45;;
43901;SDS011;29562;40.390;-3.706;2023-12-14T14:22:46;4.43;;;1.23;;
43901;SDS011;29562;40.390;-3.706;2023-12-14T14:25:17;6.93;;;1.65;;
43901;SDS011;29562;40.390;-3.706;2023-12-14T14:27:48;4.03;;;1.27;;
43901;SDS011;29562;40.390;-3.706;2023-12-14T14:30:19;4.50;;;1.10;;
43901;SDS011;29562;40.390;-3.706;2023-12-14T14:32:50;3.10;;;1.10;;
43901;SDS011;29562;40.390;-3.706;2023-12-14T14:35:22;5.88;;;1.00;;
43901;SDS011;29562;40.390;-3.706;2023-12-14T14:37:56;8.13;;;1.42;;
43901;SDS011;29562;40.390;-3.706;2023-12-14T14:40:27;2.40;;;1.30;;
43901;SDS011;29562;40.390;-3.706;2023-12-14T14:42:58;5.35;;;1.20;;
43901;SDS011;29562;40.390;-3.706;2023-12-14T14:45:29;1.85;;;1.02;;
43901;SDS011;29562;40.390;-3.706;2023-12-14T14:48:00;2.28;;;1.27;;
43901;SDS011;29562;40.390;-3.706;2023-12-14T14:50:32;4.95;;;0.90;;
43901;SDS011;29562;40.390;-3.706;2023-12-14T14:53:03;1.95;;;0.90;;
43901;SDS011;29562;40.390;-3.706;2023-12-14T14:55:34;3.72;;;1.00;;
43901;SDS011;29562;40.390;-3.706;2023-12-14T14:58:05;3.22;;;0.93;;
43901;SDS011;29562;40.390;-3.706;2023-12-14T15:00:36;3.08;;;1.05;;
43901;SDS011;29562;40.390;-3.706;2023-12-14T15:05:40;4.10;;;1.00;;
43901;SDS011;29562;40.390;-3.706;2023-12-14T15:08:11;5.07;;;1.40;;
43901;SDS011;29562;40.390;-3.706;2023-12-14T15:10:43;3.00;;;1.05;;
43901;SDS011;29562;40.390;-3.706;2023-12-14T15:13:14;3.92;;;1.20;;
43901;SDS011;29562;40.390;-3.706;2023-12-14T15:15:47;3.10;;;1.08;;